createdAt,value
2019-03-24T00:00:31.109Z,0
2019-03-24T00:01:40.632Z,0
2019-03-24T00:02:30.715Z,0
2019-03-24T00:03:30.722Z,0
2019-03-24T00:04:30.984Z,0
2019-03-24T00:05:30.729Z,0
2019-03-24T00:06:30.374Z,0
2019-03-24T00:07:30.868Z,0
2019-03-24T00:08:30.637Z,0
2019-03-24T00:09:30.962Z,0
2019-03-24T00:10:30.974Z,0
2019-03-24T00:11:30.414Z,0
2019-03-24T00:12:30.874Z,0
2019-03-24T00:13:32.314Z,0
2019-03-24T00:14:30.867Z,0
2019-03-24T00:15:35.556Z,0
2019-03-24T00:16:30.879Z,0
2019-03-24T00:17:30.586Z,0
2019-03-24T00:18:30.699Z,0
2019-03-24T00:19:30.846Z,0
2019-03-24T00:20:30.918Z,0
2019-03-24T00:21:30.818Z,0
2019-03-24T00:22:30.961Z,0
2019-03-24T00:23:30.936Z,0
2019-03-24T00:24:30.860Z,0
2019-03-24T00:25:30.896Z,0
2019-03-24T00:26:33.191Z,0
2019-03-24T00:27:30.789Z,0
2019-03-24T00:28:30.700Z,0
2019-03-24T00:29:30.515Z,0
2019-03-24T00:30:30.866Z,0
2019-03-24T00:31:30.533Z,0
2019-03-24T00:32:30.529Z,0
2019-03-24T00:33:31.627Z,0
2019-03-24T00:34:30.212Z,0
2019-03-24T00:35:30.730Z,0
2019-03-24T00:36:30.389Z,0
2019-03-24T00:37:30.664Z,0
2019-03-24T00:38:30.760Z,0
2019-03-24T00:39:30.742Z,0
2019-03-24T00:40:30.372Z,0
2019-03-24T00:41:30.118Z,0
2019-03-24T00:42:30.462Z,0
2019-03-24T00:43:30.510Z,0
2019-03-24T00:44:30.729Z,0
2019-03-24T00:45:41.182Z,0
2019-03-24T00:46:30.820Z,0
2019-03-24T00:47:30.685Z,0
2019-03-24T00:48:30.540Z,0
2019-03-24T00:49:30.664Z,0
2019-03-24T00:50:29.649Z,0
2019-03-24T00:51:30.408Z,0
2019-03-24T00:52:30.371Z,0
2019-03-24T00:53:30.581Z,0
2019-03-24T00:54:30.333Z,0
2019-03-24T00:55:30.333Z,0
2019-03-24T00:56:30.589Z,0
2019-03-24T00:57:30.099Z,0
2019-03-24T00:58:30.344Z,0
2019-03-24T00:59:30.379Z,0
2019-03-24T01:00:30.628Z,0
2019-03-24T01:01:30.300Z,0
2019-03-24T01:02:30.245Z,0
2019-03-24T01:03:31.661Z,0
2019-03-24T01:04:29.946Z,0
2019-03-24T01:05:29.804Z,0
2019-03-24T01:06:29.731Z,0
2019-03-24T01:07:29.991Z,0
2019-03-24T01:08:30.482Z,0
2019-03-24T01:09:30.194Z,0
2019-03-24T01:10:30.611Z,0
2019-03-24T01:11:30.456Z,0
2019-03-24T01:12:29.817Z,0
2019-03-24T01:13:29.878Z,0
2019-03-24T01:14:29.862Z,0
2019-03-24T01:15:30.471Z,0
2019-03-24T01:16:30.188Z,0
2019-03-24T01:17:29.872Z,0
2019-03-24T01:18:30.242Z,0
2019-03-24T01:19:30.417Z,0
2019-03-24T01:20:29.876Z,0
2019-03-24T01:21:30.213Z,0
2019-03-24T01:22:30.346Z,0
2019-03-24T01:23:30.101Z,0
2019-03-24T01:24:30.359Z,0
2019-03-24T01:25:30.019Z,0
2019-03-24T01:26:30.274Z,0
2019-03-24T01:27:30.258Z,0
2019-03-24T01:28:30.032Z,0
2019-03-24T01:29:29.735Z,0
2019-03-24T01:30:30.111Z,0
2019-03-24T01:31:30.372Z,0
2019-03-24T01:32:29.908Z,0
2019-03-24T01:33:31.346Z,0
2019-03-24T01:34:30.205Z,0
2019-03-24T01:35:29.772Z,0
2019-03-24T01:36:30.007Z,0
2019-03-24T01:37:29.736Z,0
2019-03-24T01:38:30.001Z,0
2019-03-24T01:39:29.730Z,0
2019-03-24T01:40:29.965Z,0
2019-03-24T01:41:29.970Z,0
2019-03-24T01:42:30.135Z,0
2019-03-24T01:43:29.630Z,0
2019-03-24T01:44:29.840Z,0
2019-03-24T01:45:29.751Z,0
2019-03-24T01:46:30.181Z,0
2019-03-24T01:47:30.096Z,0
2019-03-24T01:48:29.898Z,0
2019-03-24T01:49:29.906Z,0
2019-03-24T01:50:29.568Z,0
2019-03-24T01:51:30.123Z,0
2019-03-24T01:52:29.261Z,0
2019-03-24T01:53:29.553Z,0
2019-03-24T01:54:29.713Z,0
2019-03-24T01:55:29.042Z,0
2019-03-24T01:56:29.771Z,0
2019-03-24T01:57:29.979Z,0
2019-03-24T01:58:30.031Z,0
2019-03-24T01:59:29.687Z,0
2019-03-24T02:00:29.663Z,0
2019-03-24T02:01:29.916Z,0
2019-03-24T02:02:29.758Z,0
2019-03-24T02:03:33.214Z,0
2019-03-24T02:04:30.056Z,0
2019-03-24T02:05:29.394Z,0
2019-03-24T02:06:29.860Z,0
2019-03-24T02:07:29.630Z,0
2019-03-24T02:08:29.630Z,0
2019-03-24T02:09:29.904Z,0
2019-03-24T02:10:30.108Z,0
2019-03-24T02:11:29.777Z,0
2019-03-24T02:12:29.989Z,0
2019-03-24T02:13:29.948Z,0
2019-03-24T02:14:29.706Z,0
2019-03-24T02:15:29.648Z,0
2019-03-24T02:16:29.724Z,0
2019-03-24T02:17:29.926Z,0
2019-03-24T02:18:29.663Z,0
2019-03-24T02:19:30.032Z,0
2019-03-24T02:20:29.451Z,0
2019-03-24T02:21:29.924Z,0
2019-03-24T02:22:29.920Z,0
2019-03-24T02:23:29.389Z,0
2019-03-24T02:24:29.964Z,0
2019-03-24T02:25:29.898Z,0
2019-03-24T02:26:29.842Z,0
2019-03-24T02:27:29.563Z,0
2019-03-24T02:28:29.326Z,0
2019-03-24T02:29:29.028Z,0
2019-03-24T02:30:29.887Z,0
2019-03-24T02:31:29.895Z,0
2019-03-24T02:32:29.903Z,0
2019-03-24T02:33:29.612Z,0
2019-03-24T02:34:29.594Z,0
2019-03-24T02:35:29.599Z,0
2019-03-24T02:36:29.851Z,0
2019-03-24T02:37:29.828Z,0
2019-03-24T02:38:29.929Z,0
2019-03-24T02:39:29.778Z,0
2019-03-24T02:40:29.745Z,0
2019-03-24T02:41:29.606Z,0
2019-03-24T02:42:29.339Z,0
2019-03-24T02:43:29.088Z,0
2019-03-24T02:44:29.341Z,0
2019-03-24T02:45:29.140Z,0
2019-03-24T02:46:33.689Z,0
2019-03-24T02:47:29.579Z,0
2019-03-24T02:48:29.051Z,0
2019-03-24T02:49:29.298Z,0
2019-03-24T02:50:29.409Z,0
2019-03-24T02:51:29.583Z,0
2019-03-24T02:52:29.271Z,0
2019-03-24T02:53:29.509Z,0
2019-03-24T02:54:29.255Z,0
2019-03-24T02:55:29.333Z,0
2019-03-24T02:56:29.537Z,0
2019-03-24T02:57:29.255Z,0
2019-03-24T02:58:29.484Z,0
2019-03-24T02:59:29.481Z,0
2019-03-24T03:00:29.488Z,0
2019-03-24T03:01:29.205Z,0
2019-03-24T03:02:29.064Z,0
2019-03-24T03:03:31.787Z,0
2019-03-24T03:04:29.641Z,0
2019-03-24T03:05:29.610Z,0
2019-03-24T03:06:29.231Z,0
2019-03-24T03:07:29.224Z,0
2019-03-24T03:08:29.402Z,0
2019-03-24T03:09:28.899Z,0
2019-03-24T03:10:29.464Z,0
2019-03-24T03:11:28.875Z,0
2019-03-24T03:12:28.868Z,0
2019-03-24T03:13:29.107Z,0
2019-03-24T03:14:28.852Z,0
2019-03-24T03:15:29.151Z,0
2019-03-24T03:16:43.014Z,0
2019-03-24T03:17:29.082Z,0
2019-03-24T03:18:29.369Z,0
2019-03-24T03:19:29.111Z,0
2019-03-24T03:20:28.662Z,0
2019-03-24T03:21:28.787Z,0
2019-03-24T03:22:28.794Z,0
2019-03-24T03:23:28.768Z,0
2019-03-24T03:24:29.032Z,0
2019-03-24T03:25:28.836Z,0
2019-03-24T03:26:29.022Z,0
2019-03-24T03:27:29.056Z,0
2019-03-24T03:28:28.828Z,0
2019-03-24T03:29:28.791Z,0
2019-03-24T03:30:29.365Z,0
2019-03-24T03:31:29.274Z,0
2019-03-24T03:32:29.365Z,0
2019-03-24T03:33:29.417Z,0
2019-03-24T03:34:31.890Z,0
2019-03-24T03:35:29.295Z,0
2019-03-24T03:36:28.833Z,0
2019-03-24T03:37:28.754Z,0
2019-03-24T03:38:29.229Z,0
2019-03-24T03:39:29.034Z,0
2019-03-24T03:40:29.354Z,0
2019-03-24T03:41:28.624Z,0
2019-03-24T03:42:28.865Z,0
2019-03-24T03:43:28.358Z,0
2019-03-24T03:44:28.608Z,0
2019-03-24T03:45:28.598Z,0
2019-03-24T03:46:28.871Z,0
2019-03-24T03:47:29.081Z,0
2019-03-24T03:48:28.868Z,0
2019-03-24T03:49:29.054Z,0
2019-03-24T03:50:28.651Z,0
2019-03-24T03:51:29.177Z,0
2019-03-24T03:52:28.534Z,0
2019-03-24T03:53:29.036Z,0
2019-03-24T03:54:29.055Z,0
2019-03-24T03:55:28.894Z,0
2019-03-24T03:56:29.594Z,0
2019-03-24T03:57:29.031Z,0
2019-03-24T03:58:28.919Z,0
2019-03-24T03:59:28.733Z,0
2019-03-24T04:00:28.811Z,0
2019-03-24T04:01:28.489Z,0
2019-03-24T04:02:28.755Z,0
2019-03-24T04:03:28.466Z,0
2019-03-24T04:04:28.962Z,0
2019-03-24T04:05:29.032Z,0
2019-03-24T04:06:29.029Z,0
2019-03-24T04:07:28.907Z,0
2019-03-24T04:08:28.972Z,0
2019-03-24T04:09:36.118Z,0
2019-03-24T04:10:28.724Z,0
2019-03-24T04:11:28.863Z,0
2019-03-24T04:12:28.622Z,0
2019-03-24T04:13:28.642Z,0
2019-03-24T04:14:28.622Z,0
2019-03-24T04:15:29.036Z,0
2019-03-24T04:16:28.718Z,0
2019-03-24T04:17:28.864Z,0
2019-03-24T04:18:28.845Z,0
2019-03-24T04:19:28.576Z,0
2019-03-24T04:20:28.593Z,0
2019-03-24T04:21:28.781Z,0
2019-03-24T04:22:28.299Z,0
2019-03-24T04:23:29.580Z,0
2019-03-24T04:24:29.171Z,0
2019-03-24T04:25:28.492Z,0
2019-03-24T04:26:28.831Z,0
2019-03-24T04:27:28.057Z,0
2019-03-24T04:28:28.374Z,0
2019-03-24T04:29:28.277Z,0
2019-03-24T04:30:30.197Z,0
2019-03-24T04:31:28.561Z,0
2019-03-24T04:32:28.019Z,0
2019-03-24T04:33:28.250Z,0
2019-03-24T04:34:28.782Z,0
2019-03-24T04:35:28.288Z,0
2019-03-24T04:36:28.405Z,0
2019-03-24T04:37:27.905Z,0
2019-03-24T04:38:28.208Z,0
2019-03-24T04:39:28.166Z,0
2019-03-24T04:40:28.620Z,0
2019-03-24T04:41:28.602Z,0
2019-03-24T04:42:28.595Z,0
2019-03-24T04:43:28.618Z,0
2019-03-24T04:44:28.337Z,0
2019-03-24T04:45:28.061Z,0
2019-03-24T04:46:28.036Z,0
2019-03-24T04:47:28.036Z,0
2019-03-24T04:48:27.786Z,0
2019-03-24T04:49:28.056Z,0
2019-03-24T04:50:28.064Z,0
2019-03-24T04:51:28.271Z,0
2019-03-24T04:52:28.500Z,0
2019-03-24T04:53:30.063Z,0
2019-03-24T04:54:28.001Z,0
2019-03-24T04:55:28.008Z,0
2019-03-24T04:56:27.983Z,0
2019-03-24T04:57:27.955Z,0
2019-03-24T04:58:28.201Z,0
2019-03-24T04:59:27.953Z,0
2019-03-24T05:00:27.946Z,0
2019-03-24T05:01:28.185Z,0
2019-03-24T05:02:28.175Z,0
2019-03-24T05:03:27.948Z,0
2019-03-24T05:04:27.921Z,0
2019-03-24T05:05:29.436Z,0
2019-03-24T05:06:28.161Z,0
2019-03-24T05:07:28.389Z,0
2019-03-24T05:08:27.867Z,0
2019-03-24T05:09:27.869Z,0
2019-03-24T05:10:28.110Z,0
2019-03-24T05:11:27.604Z,0
2019-03-24T05:12:27.856Z,0
2019-03-24T05:13:27.830Z,0
2019-03-24T05:14:28.102Z,0
2019-03-24T05:15:28.862Z,0
2019-03-24T05:16:28.071Z,5
2019-03-24T05:17:36.278Z,5
2019-03-24T05:18:27.556Z,5
2019-03-24T05:19:28.050Z,5
2019-03-24T05:20:28.051Z,5
2019-03-24T05:21:28.053Z,5
2019-03-24T05:22:28.247Z,5
2019-03-24T05:23:28.275Z,10
2019-03-24T05:24:28.239Z,10
2019-03-24T05:25:28.333Z,10
2019-03-24T05:26:28.011Z,10
2019-03-24T05:27:27.735Z,10
2019-03-24T05:28:27.707Z,10
2019-03-24T05:29:27.670Z,15
2019-03-24T05:30:27.968Z,15
2019-03-24T05:31:27.664Z,15
2019-03-24T05:32:27.906Z,15
2019-03-24T05:33:27.933Z,20
2019-03-24T05:34:27.884Z,20
2019-03-24T05:35:29.004Z,20
2019-03-24T05:36:27.622Z,20
2019-03-24T05:37:27.861Z,25
2019-03-24T05:38:28.109Z,25
2019-03-24T05:39:27.626Z,25
2019-03-24T05:40:27.136Z,25
2019-03-24T05:41:27.582Z,30
2019-03-24T05:42:27.324Z,30
2019-03-24T05:43:27.550Z,30
2019-03-24T05:44:27.859Z,35
2019-03-24T05:45:27.579Z,35
2019-03-24T05:46:27.777Z,35
2019-03-24T05:47:36.754Z,40
2019-03-24T05:48:27.522Z,40
2019-03-24T05:49:27.312Z,40
2019-03-24T05:50:27.036Z,40
2019-03-24T05:51:27.748Z,40
2019-03-24T05:52:30.040Z,40
2019-03-24T05:53:27.485Z,45
2019-03-24T05:54:27.730Z,45
2019-03-24T05:55:27.478Z,45
2019-03-24T05:56:27.685Z,50
2019-03-24T05:57:29.712Z,50
2019-03-24T05:58:27.687Z,55
2019-03-24T05:59:27.660Z,55
2019-03-24T06:00:27.754Z,55
2019-03-24T06:01:27.403Z,60
2019-03-24T06:02:27.696Z,60
2019-03-24T06:03:27.654Z,60
2019-03-24T06:04:27.631Z,65
2019-03-24T06:05:27.398Z,65
2019-03-24T06:06:27.209Z,65
2019-03-24T06:07:27.384Z,70
2019-03-24T06:08:27.348Z,70
2019-03-24T06:09:27.596Z,70
2019-03-24T06:10:27.436Z,75
2019-03-24T06:11:27.586Z,75
2019-03-24T06:12:27.105Z,80
2019-03-24T06:13:27.822Z,80
2019-03-24T06:14:27.573Z,80
2019-03-24T06:15:27.438Z,85
2019-03-24T06:16:27.589Z,85
2019-03-24T06:17:27.051Z,85
2019-03-24T06:18:27.278Z,90
2019-03-24T06:19:27.501Z,90
2019-03-24T06:20:27.629Z,90
2019-03-24T06:21:27.236Z,90
2019-03-24T06:22:27.236Z,95
2019-03-24T06:23:27.765Z,95
2019-03-24T06:24:27.471Z,95
2019-03-24T06:25:27.755Z,95
2019-03-24T06:26:27.460Z,100
2019-03-24T06:27:27.187Z,100
2019-03-24T06:28:27.437Z,100
2019-03-24T06:29:27.427Z,100
2019-03-24T06:30:27.178Z,105
2019-03-24T06:31:27.177Z,105
2019-03-24T06:32:27.146Z,105
2019-03-24T06:33:27.655Z,105
2019-03-24T06:34:27.142Z,110
2019-03-24T06:35:27.725Z,110
2019-03-24T06:36:27.691Z,110
2019-03-24T06:37:27.374Z,115
2019-03-24T06:38:27.109Z,115
2019-03-24T06:39:27.109Z,115
2019-03-24T06:40:29.419Z,120
2019-03-24T06:41:27.397Z,120
2019-03-24T06:42:27.088Z,120
2019-03-24T06:43:26.850Z,125
2019-03-24T06:44:27.363Z,125
2019-03-24T06:45:37.527Z,125
2019-03-24T06:46:27.319Z,130
2019-03-24T06:47:26.806Z,130
2019-03-24T06:48:27.335Z,130
2019-03-24T06:49:27.384Z,135
2019-03-24T06:50:27.347Z,135
2019-03-24T06:51:28.503Z,140
2019-03-24T06:52:26.778Z,145
2019-03-24T06:53:27.019Z,145
2019-03-24T06:54:27.264Z,145
2019-03-24T06:55:27.116Z,150
2019-03-24T06:56:27.011Z,150
2019-03-24T06:57:26.983Z,150
2019-03-24T06:58:27.471Z,150
2019-03-24T06:59:26.481Z,155
2019-03-24T07:00:27.259Z,155
2019-03-24T07:01:26.968Z,155
2019-03-24T07:02:27.453Z,155
2019-03-24T07:03:26.718Z,160
2019-03-24T07:04:27.194Z,160
2019-03-24T07:05:26.986Z,165
2019-03-24T07:06:27.175Z,165
2019-03-24T07:07:27.174Z,165
2019-03-24T07:08:26.963Z,170
2019-03-24T07:09:27.416Z,170
2019-03-24T07:10:27.278Z,175
2019-03-24T07:11:27.143Z,175
2019-03-24T07:12:27.396Z,180
2019-03-24T07:13:26.663Z,180
2019-03-24T07:14:26.911Z,185
2019-03-24T07:15:27.158Z,185
2019-03-24T07:16:27.859Z,190
2019-03-24T07:17:27.396Z,190
2019-03-24T07:18:27.390Z,195
2019-03-24T07:19:27.136Z,195
2019-03-24T07:20:27.170Z,195
2019-03-24T07:21:27.107Z,200
2019-03-24T07:22:27.107Z,200
2019-03-24T07:23:26.623Z,200
2019-03-24T07:24:27.354Z,200
2019-03-24T07:25:27.381Z,210
2019-03-24T07:26:27.087Z,210
2019-03-24T07:27:26.838Z,215
2019-03-24T07:28:27.447Z,210
2019-03-24T07:29:27.330Z,215
2019-03-24T07:30:26.941Z,215
2019-03-24T07:31:27.086Z,215
2019-03-24T07:32:27.075Z,215
2019-03-24T07:33:26.834Z,220
2019-03-24T07:34:27.086Z,220
2019-03-24T07:35:27.558Z,220
2019-03-24T07:36:30.307Z,220
2019-03-24T07:37:27.065Z,225
2019-03-24T07:38:26.810Z,225
2019-03-24T07:39:27.048Z,225
2019-03-24T07:40:27.353Z,225
2019-03-24T07:41:27.078Z,225
2019-03-24T07:42:26.837Z,230
2019-03-24T07:43:27.063Z,230
2019-03-24T07:44:26.868Z,230
2019-03-24T07:45:27.314Z,235
2019-03-24T07:46:27.301Z,230
2019-03-24T07:47:27.857Z,230
2019-03-24T07:48:28.606Z,230
2019-03-24T07:49:26.799Z,230
2019-03-24T07:50:27.414Z,235
2019-03-24T07:51:27.097Z,235
2019-03-24T07:52:27.047Z,235
2019-03-24T07:53:27.299Z,235
2019-03-24T07:54:27.322Z,235
2019-03-24T07:55:26.575Z,235
2019-03-24T07:56:27.040Z,235
2019-03-24T07:57:27.080Z,240
2019-03-24T07:58:27.072Z,240
2019-03-24T07:59:27.057Z,240
2019-03-24T08:00:26.875Z,240
2019-03-24T08:01:26.800Z,240
2019-03-24T08:02:27.072Z,240
2019-03-24T08:03:27.081Z,245
2019-03-24T08:04:27.070Z,235
2019-03-24T08:05:27.122Z,240
2019-03-24T08:06:27.301Z,250
2019-03-24T08:07:27.909Z,240
2019-03-24T08:08:27.295Z,240
2019-03-24T08:09:27.042Z,245
2019-03-24T08:10:27.418Z,245
2019-03-24T08:11:27.051Z,245
2019-03-24T08:12:27.077Z,245
2019-03-24T08:13:27.353Z,240
2019-03-24T08:14:27.058Z,240
2019-03-24T08:15:27.148Z,240
2019-03-24T08:16:27.351Z,240
2019-03-24T08:17:26.814Z,240
2019-03-24T08:18:36.817Z,240
2019-03-24T08:19:26.810Z,240
2019-03-24T08:20:27.306Z,240
2019-03-24T08:21:27.325Z,240
2019-03-24T08:22:26.803Z,240
2019-03-24T08:23:26.797Z,245
2019-03-24T08:24:27.291Z,240
2019-03-24T08:25:27.967Z,240
2019-03-24T08:26:27.120Z,240
2019-03-24T08:27:26.804Z,240
2019-03-24T08:28:28.040Z,245
2019-03-24T08:29:27.316Z,245
2019-03-24T08:30:28.790Z,245
2019-03-24T08:31:27.084Z,245
2019-03-24T08:32:26.582Z,240
2019-03-24T08:33:27.352Z,240
2019-03-24T08:34:27.126Z,240
2019-03-24T08:35:27.146Z,240
2019-03-24T08:36:27.071Z,240
2019-03-24T08:37:27.072Z,240
2019-03-24T08:38:27.329Z,240
2019-03-24T08:39:27.332Z,240
2019-03-24T08:40:26.862Z,240
2019-03-24T08:41:27.332Z,240
2019-03-24T08:42:27.083Z,240
2019-03-24T08:43:26.845Z,240
2019-03-24T08:44:26.829Z,245
2019-03-24T08:45:26.857Z,245
2019-03-24T08:46:27.325Z,245
2019-03-24T08:47:26.616Z,245
2019-03-24T08:48:27.098Z,245
2019-03-24T08:49:27.057Z,245
2019-03-24T08:50:27.338Z,245
2019-03-24T08:51:27.317Z,245
2019-03-24T08:52:26.820Z,245
2019-03-24T08:53:27.106Z,245
2019-03-24T08:54:26.853Z,245
2019-03-24T08:55:27.172Z,245
2019-03-24T08:56:27.073Z,245
2019-03-24T08:57:27.047Z,255
2019-03-24T08:58:26.812Z,245
2019-03-24T08:59:26.822Z,245
2019-03-24T09:00:37.651Z,250
2019-03-24T09:01:26.838Z,245
2019-03-24T09:02:27.070Z,255
2019-03-24T09:03:27.061Z,245
2019-03-24T09:04:26.858Z,250
2019-03-24T09:05:26.717Z,250
2019-03-24T09:06:26.820Z,250
2019-03-24T09:07:26.553Z,250
2019-03-24T09:08:27.312Z,250
2019-03-24T09:09:27.035Z,250
2019-03-24T09:10:27.362Z,250
2019-03-24T09:11:37.653Z,250
2019-03-24T09:12:27.017Z,250
2019-03-24T09:13:27.283Z,250
2019-03-24T09:14:27.029Z,250
2019-03-24T09:15:27.021Z,250
2019-03-24T09:16:26.523Z,250
2019-03-24T09:17:27.444Z,250
2019-03-24T09:18:27.288Z,250
2019-03-24T09:19:27.299Z,255
2019-03-24T09:20:26.339Z,255
2019-03-24T09:21:28.945Z,250
2019-03-24T09:22:26.759Z,250
2019-03-24T09:23:26.497Z,260
2019-03-24T09:24:27.002Z,250
2019-03-24T09:25:27.437Z,250
2019-03-24T09:26:27.008Z,250
2019-03-24T09:27:27.019Z,250
2019-03-24T09:28:27.556Z,245
2019-03-24T09:29:26.984Z,245
2019-03-24T09:30:26.784Z,245
2019-03-24T09:31:27.004Z,245
2019-03-24T09:32:26.749Z,245
2019-03-24T09:33:26.748Z,245
2019-03-24T09:34:27.239Z,245
2019-03-24T09:35:27.069Z,245
2019-03-24T09:36:26.787Z,245
2019-03-24T09:37:27.202Z,245
2019-03-24T09:38:30.221Z,245
2019-03-24T09:39:27.077Z,245
2019-03-24T09:40:28.016Z,245
2019-03-24T09:41:26.728Z,245
2019-03-24T09:42:26.959Z,245
2019-03-24T09:43:26.493Z,245
2019-03-24T09:44:26.725Z,245
2019-03-24T09:45:26.723Z,245
2019-03-24T09:46:26.448Z,245
2019-03-24T09:47:26.469Z,250
2019-03-24T09:48:26.696Z,245
2019-03-24T09:49:26.949Z,245
2019-03-24T09:50:26.526Z,245
2019-03-24T09:51:27.855Z,245
2019-03-24T09:52:26.968Z,245
2019-03-24T09:53:26.937Z,245
2019-03-24T09:54:26.952Z,245
2019-03-24T09:55:26.917Z,245
2019-03-24T09:56:26.678Z,245
2019-03-24T09:57:27.171Z,245
2019-03-24T09:58:27.163Z,245
2019-03-24T09:59:26.429Z,245
2019-03-24T10:00:26.672Z,245
2019-03-24T10:01:26.916Z,245
2019-03-24T10:02:27.247Z,245
2019-03-24T10:03:26.670Z,245
2019-03-24T10:04:26.694Z,245
2019-03-24T10:05:26.833Z,245
2019-03-24T10:06:26.156Z,245
2019-03-24T10:07:26.902Z,250
2019-03-24T10:08:26.651Z,250
2019-03-24T10:09:26.925Z,250
2019-03-24T10:10:26.901Z,250
2019-03-24T10:11:26.628Z,245
2019-03-24T10:12:26.404Z,245
2019-03-24T10:13:26.416Z,245
2019-03-24T10:14:26.888Z,250
2019-03-24T10:15:27.181Z,250
2019-03-24T10:16:27.183Z,245
2019-03-24T10:17:27.128Z,245
2019-03-24T10:18:27.130Z,245
2019-03-24T10:19:26.623Z,245
2019-03-24T10:20:27.178Z,245
2019-03-24T10:21:26.884Z,245
2019-03-24T10:22:27.157Z,245
2019-03-24T10:23:27.118Z,245
2019-03-24T10:24:26.611Z,245
2019-03-24T10:25:27.166Z,245
2019-03-24T10:26:26.606Z,245
2019-03-24T10:27:26.860Z,245
2019-03-24T10:28:26.871Z,245
2019-03-24T10:29:26.605Z,245
2019-03-24T10:30:26.430Z,245
2019-03-24T10:31:26.850Z,245
2019-03-24T10:32:26.876Z,245
2019-03-24T10:33:26.625Z,245
2019-03-24T10:34:26.358Z,245
2019-03-24T10:35:26.899Z,245
2019-03-24T10:36:26.892Z,245
2019-03-24T10:37:27.067Z,245
2019-03-24T10:38:26.589Z,245
2019-03-24T10:39:26.856Z,245
2019-03-24T10:40:37.434Z,245
2019-03-24T10:41:27.117Z,245
2019-03-24T10:42:26.323Z,240
2019-03-24T10:43:26.316Z,240
2019-03-24T10:44:27.062Z,240
2019-03-24T10:45:27.063Z,240
2019-03-24T10:46:26.370Z,240
2019-03-24T10:47:26.911Z,240
2019-03-24T10:48:36.013Z,240
2019-03-24T10:49:34.701Z,240
2019-03-24T10:50:26.814Z,240
2019-03-24T10:51:26.810Z,240
2019-03-24T10:52:26.565Z,240
2019-03-24T10:53:26.317Z,240
2019-03-24T10:54:26.802Z,240
2019-03-24T10:55:26.817Z,240
2019-03-24T10:56:26.584Z,240
2019-03-24T10:57:26.603Z,240
2019-03-24T10:58:26.548Z,240
2019-03-24T10:59:26.556Z,240
2019-03-24T11:00:26.820Z,240
2019-03-24T11:01:26.834Z,240
2019-03-24T11:02:26.806Z,245
2019-03-24T11:03:26.536Z,245
2019-03-24T11:04:26.839Z,240
2019-03-24T11:05:27.120Z,240
2019-03-24T11:06:26.547Z,240
2019-03-24T11:07:26.809Z,240
2019-03-24T11:08:27.737Z,240
2019-03-24T11:09:26.056Z,240
2019-03-24T11:10:26.807Z,240
2019-03-24T11:11:27.023Z,240
2019-03-24T11:12:26.812Z,240
2019-03-24T11:13:26.761Z,240
2019-03-24T11:14:26.805Z,240
2019-03-24T11:15:26.278Z,240
2019-03-24T11:16:26.548Z,240
2019-03-24T11:17:26.543Z,240
2019-03-24T11:18:26.795Z,240
2019-03-24T11:19:37.648Z,240
2019-03-24T11:20:26.286Z,240
2019-03-24T11:21:26.520Z,235
2019-03-24T11:22:26.513Z,235
2019-03-24T11:23:26.510Z,240
2019-03-24T11:24:26.242Z,240
2019-03-24T11:25:27.117Z,240
2019-03-24T11:26:26.733Z,235
2019-03-24T11:27:26.768Z,235
2019-03-24T11:28:29.409Z,235
2019-03-24T11:29:26.504Z,235
2019-03-24T11:30:26.807Z,240
2019-03-24T11:31:26.503Z,235
2019-03-24T11:32:26.245Z,235
2019-03-24T11:33:26.479Z,235
2019-03-24T11:34:26.476Z,235
2019-03-24T11:35:26.484Z,230
2019-03-24T11:36:26.227Z,230
2019-03-24T11:37:25.988Z,230
2019-03-24T11:38:30.252Z,235
2019-03-24T11:39:26.717Z,235
2019-03-24T11:40:27.012Z,235
2019-03-24T11:41:26.222Z,230
2019-03-24T11:42:26.457Z,230
2019-03-24T11:43:26.729Z,230
2019-03-24T11:44:26.466Z,230
2019-03-24T11:45:26.485Z,230
2019-03-24T11:46:26.819Z,230
2019-03-24T11:47:36.057Z,230
2019-03-24T11:48:26.466Z,230
2019-03-24T11:49:26.209Z,230
2019-03-24T11:50:26.455Z,230
2019-03-24T11:51:26.718Z,225
2019-03-24T11:52:26.948Z,225
2019-03-24T11:53:26.208Z,225
2019-03-24T11:54:26.942Z,225
2019-03-24T11:55:26.454Z,225
2019-03-24T11:56:26.467Z,225
2019-03-24T11:57:26.700Z,225
2019-03-24T11:58:26.468Z,225
2019-03-24T11:59:26.482Z,225
2019-03-24T12:00:26.712Z,225
2019-03-24T12:01:26.699Z,225
2019-03-24T12:02:26.687Z,225
2019-03-24T12:03:27.941Z,225
2019-03-24T12:04:26.930Z,230
2019-03-24T12:05:26.428Z,220
2019-03-24T12:06:26.935Z,220
2019-03-24T12:07:26.931Z,220
2019-03-24T12:08:26.978Z,220
2019-03-24T12:09:26.928Z,220
2019-03-24T12:10:26.703Z,220
2019-03-24T12:11:26.188Z,220
2019-03-24T12:12:26.911Z,220
2019-03-24T12:13:26.476Z,220
2019-03-24T12:14:26.413Z,220
2019-03-24T12:15:26.418Z,215
2019-03-24T12:16:26.671Z,215
2019-03-24T12:17:26.166Z,215
2019-03-24T12:18:26.745Z,215
2019-03-24T12:19:26.413Z,215
2019-03-24T12:20:26.717Z,215
2019-03-24T12:21:26.961Z,215
2019-03-24T12:22:26.404Z,215
2019-03-24T12:23:28.123Z,215
2019-03-24T12:24:26.680Z,215
2019-03-24T12:25:26.421Z,215
2019-03-24T12:26:26.171Z,215
2019-03-24T12:27:25.950Z,215
2019-03-24T12:28:26.674Z,215
2019-03-24T12:29:26.641Z,215
2019-03-24T12:30:26.415Z,215
2019-03-24T12:31:26.418Z,215
2019-03-24T12:32:26.640Z,210
2019-03-24T12:33:25.898Z,210
2019-03-24T12:34:26.415Z,210
2019-03-24T12:35:26.391Z,210
2019-03-24T12:36:26.632Z,210
2019-03-24T12:37:26.380Z,210
2019-03-24T12:38:26.884Z,210
2019-03-24T12:39:26.639Z,210
2019-03-24T12:40:26.646Z,210
2019-03-24T12:41:26.656Z,210
2019-03-24T12:42:26.439Z,210
2019-03-24T12:43:29.129Z,210
2019-03-24T12:44:26.381Z,210
2019-03-24T12:45:26.377Z,210
2019-03-24T12:46:26.385Z,210
2019-03-24T12:47:26.125Z,210
2019-03-24T12:48:27.179Z,210
2019-03-24T12:49:26.367Z,210
2019-03-24T12:50:37.477Z,215
2019-03-24T12:51:26.857Z,210
2019-03-24T12:52:26.655Z,210
2019-03-24T12:53:26.644Z,210
2019-03-24T12:54:28.004Z,210
2019-03-24T12:55:26.351Z,215
2019-03-24T12:56:26.108Z,215
2019-03-24T12:57:26.613Z,215
2019-03-24T12:58:26.668Z,215
2019-03-24T12:59:26.361Z,215
2019-03-24T13:00:26.624Z,215
2019-03-24T13:01:26.400Z,215
2019-03-24T13:02:26.128Z,210
2019-03-24T13:03:26.364Z,210
2019-03-24T13:04:26.377Z,210
2019-03-24T13:05:26.943Z,210
2019-03-24T13:06:26.389Z,210
2019-03-24T13:07:26.626Z,210
2019-03-24T13:08:26.133Z,210
2019-03-24T13:09:26.888Z,210
2019-03-24T13:10:26.704Z,210
2019-03-24T13:11:26.622Z,210
2019-03-24T13:12:26.935Z,210
2019-03-24T13:13:26.865Z,210
2019-03-24T13:14:26.388Z,210
2019-03-24T13:15:26.937Z,215
2019-03-24T13:16:26.389Z,215
2019-03-24T13:17:26.632Z,210
2019-03-24T13:18:26.588Z,210
2019-03-24T13:19:26.869Z,210
2019-03-24T13:20:45.218Z,210
2019-03-24T13:21:26.161Z,210
2019-03-24T13:22:26.575Z,210
2019-03-24T13:23:26.649Z,210
2019-03-24T13:24:26.589Z,210
2019-03-24T13:25:26.343Z,210
2019-03-24T13:26:26.617Z,210
2019-03-24T13:27:26.682Z,210
2019-03-24T13:28:26.122Z,215
2019-03-24T13:29:26.835Z,210
2019-03-24T13:30:26.079Z,210
2019-03-24T13:31:26.070Z,210
2019-03-24T13:32:26.797Z,215
2019-03-24T13:33:26.323Z,215
2019-03-24T13:34:26.583Z,215
2019-03-24T13:35:26.666Z,215
2019-03-24T13:36:26.336Z,215
2019-03-24T13:37:26.134Z,215
2019-03-24T13:38:26.346Z,215
2019-03-24T13:39:26.344Z,215
2019-03-24T13:40:26.896Z,215
2019-03-24T13:41:26.382Z,215
2019-03-24T13:42:26.336Z,210
2019-03-24T13:43:26.609Z,210
2019-03-24T13:44:26.086Z,210
2019-03-24T13:45:26.335Z,210
2019-03-24T13:46:26.565Z,205
2019-03-24T13:47:26.334Z,205
2019-03-24T13:48:26.567Z,205
2019-03-24T13:49:26.335Z,205
2019-03-24T13:50:38.159Z,205
2019-03-24T13:51:26.812Z,205
2019-03-24T13:52:26.567Z,205
2019-03-24T13:53:26.572Z,205
2019-03-24T13:54:26.345Z,205
2019-03-24T13:55:26.330Z,205
2019-03-24T13:56:26.545Z,205
2019-03-24T13:57:26.391Z,205
2019-03-24T13:58:26.797Z,200
2019-03-24T13:59:26.353Z,205
2019-03-24T14:00:26.805Z,200
2019-03-24T14:01:26.790Z,205
2019-03-24T14:02:26.319Z,205
2019-03-24T14:03:26.300Z,205
2019-03-24T14:04:26.348Z,205
2019-03-24T14:05:26.294Z,205
2019-03-24T14:06:26.796Z,205
2019-03-24T14:07:26.533Z,205
2019-03-24T14:08:26.297Z,205
2019-03-24T14:09:26.965Z,200
2019-03-24T14:10:26.288Z,200